createdAt,value
2019-04-23T00:01:12.259Z,53.45
2019-04-23T00:03:34.445Z,52.24
2019-04-23T00:06:08.561Z,51.76
2019-04-23T00:08:44.831Z,51.59
2019-04-23T00:11:08.677Z,51.18
2019-04-23T00:13:38.491Z,52.35
2019-04-23T00:16:18.675Z,52.63
2019-04-23T00:21:20.730Z,52.30
2019-04-23T00:24:04.012Z,52.97
2019-04-23T00:26:34.372Z,51.36
2019-04-23T00:28:58.930Z,52.00
2019-04-23T00:33:57.329Z,51.52
2019-04-23T00:36:32.135Z,52.59
2019-04-23T00:38:56.662Z,53.13
2019-04-23T00:41:33.449Z,52.84
2019-04-23T00:46:36.818Z,54.75
2019-04-23T00:49:05.843Z,54.57
2019-04-23T00:51:36.964Z,54.37
2019-04-23T00:54:06.018Z,54.92
2019-04-23T00:56:58.354Z,55.40
2019-04-23T00:59:05.398Z,53.02
2019-04-23T01:01:45.835Z,53.94
2019-04-23T01:04:10.217Z,53.79
2019-04-23T01:06:43.462Z,54.57
2019-04-23T01:09:08.191Z,54.32
2019-04-23T01:11:43.532Z,54.22
2019-04-23T01:14:13.647Z,55.10
2019-04-23T01:16:59.764Z,54.08
2019-04-23T01:21:47.457Z,54.63
2019-04-23T01:24:37.185Z,55.06
2019-04-23T01:27:51.389Z,55.11
2019-04-23T01:32:36.563Z,55.02
2019-04-23T01:35:15.367Z,56.21
2019-04-23T01:37:36.717Z,56.02
2019-04-23T01:40:11.812Z,57.05
2019-04-23T01:42:40.608Z,55.90
2019-04-23T01:45:13.339Z,56.02
2019-04-23T01:47:47.183Z,55.23
2019-04-23T01:50:14.072Z,54.84
2019-04-23T01:52:50.610Z,55.05
2019-04-23T01:55:14.965Z,54.80
2019-04-23T02:02:49.951Z,56.89
2019-04-23T02:05:24.380Z,57.40
2019-04-23T02:07:50.928Z,58.05
2019-04-23T02:10:38.052Z,57.48
2019-04-23T02:12:55.731Z,57.76
2019-04-23T02:15:23.022Z,57.19
2019-04-23T02:23:14.869Z,57.79
2019-04-23T02:25:49.050Z,56.92
2019-04-23T02:28:11.903Z,58.82
2019-04-23T02:30:57.812Z,58.19
2019-04-23T02:33:29.833Z,58.18
2019-04-23T02:35:56.192Z,59.22
2019-04-23T02:38:27.263Z,59.26
2019-04-23T02:50:43.894Z,60.16
2019-04-23T02:56:16.731Z,61.09
2019-04-23T02:58:38.662Z,61.93
2019-04-23T03:01:15.115Z,61.65
2019-04-23T03:03:35.757Z,61.58
2019-04-23T03:08:33.051Z,61.76
2019-04-23T03:11:09.809Z,61.01
2019-04-23T03:13:37.625Z,61.52
2019-04-23T03:18:53.739Z,61.22
2019-04-23T03:21:52.834Z,62.18
2019-04-23T03:29:43.437Z,63.31
2019-04-23T03:33:29.530Z,62.59
2019-04-23T03:42:16.312Z,61.87
2019-04-23T03:47:20.648Z,61.94
2019-04-23T03:49:46.361Z,61.94
2019-04-23T03:52:25.389Z,62.05
2019-04-23T03:55:03.262Z,61.01
2019-04-23T03:57:24.691Z,61.19
2019-04-23T03:59:55.101Z,62.16
2019-04-23T04:04:45.158Z,62.46
2019-04-23T04:07:27.858Z,61.80
2019-04-23T04:09:57.765Z,62.10
2019-04-23T04:14:54.414Z,63.19
2019-04-23T04:17:33.034Z,63.65
2019-04-23T04:19:56.295Z,64.01
2019-04-23T04:25:21.231Z,63.71
2019-04-23T04:27:43.351Z,63.71
2019-04-23T04:30:01.575Z,63.40
2019-04-23T04:32:31.595Z,63.44
2019-04-23T04:35:18.808Z,64.07
2019-04-23T04:40:10.868Z,63.32
2019-04-23T04:43:22.514Z,63.32
2019-04-23T04:45:30.568Z,62.72
2019-04-23T04:47:42.603Z,62.99
2019-04-23T04:52:48.796Z,63.18
2019-04-23T04:55:16.200Z,63.18
2019-04-23T04:57:41.697Z,63.84
2019-04-23T05:02:52.779Z,63.86
2019-04-23T05:05:48.450Z,63.77
2019-04-23T05:10:30.222Z,64.31
2019-04-23T05:12:56.399Z,64.31
2019-04-23T05:15:07.264Z,62.87
2019-04-23T05:20:36.739Z,63.61
2019-04-23T05:23:16.479Z,64.00
2019-04-23T05:25:31.808Z,64.08
2019-04-23T05:28:13.885Z,62.71
2019-04-23T05:33:14.138Z,63.34
2019-04-23T05:36:02.016Z,63.12
2019-04-23T05:38:22.319Z,63.39
2019-04-23T05:40:45.310Z,63.61
2019-04-23T05:43:15.840Z,63.67
2019-04-23T05:45:39.898Z,63.88
2019-04-23T05:48:19.844Z,64.66
2019-04-23T05:51:00.840Z,63.91
2019-04-23T05:53:18.404Z,63.12
2019-04-23T05:55:47.632Z,63.12
2019-04-23T05:58:22.110Z,63.69
2019-04-23T06:00:59.917Z,63.94
2019-04-23T06:03:24.874Z,63.86
2019-04-23T06:06:03.302Z,63.69
2019-04-23T06:08:32.076Z,62.36
2019-04-23T06:11:05.642Z,62.16
2019-04-23T06:13:36.570Z,62.49
2019-04-23T06:15:59.671Z,61.92
2019-04-23T06:18:38.553Z,60.78
2019-04-23T06:21:12.873Z,60.78
2019-04-23T06:23:46.384Z,59.88
2019-04-23T06:28:33.624Z,60.33
2019-04-23T06:31:06.430Z,59.75
2019-04-23T06:33:43.385Z,59.75
2019-04-23T06:36:17.052Z,60.12
2019-04-23T06:41:15.696Z,59.87
2019-04-23T06:44:00.476Z,59.26
2019-04-23T06:46:25.320Z,57.96
2019-04-23T06:48:54.856Z,58.04
2019-04-23T06:51:31.125Z,57.51
2019-04-23T06:53:59.968Z,58.10
2019-04-23T06:59:02.458Z,58.33
2019-04-23T07:01:31.072Z,56.42
2019-04-23T07:04:02.554Z,55.81
2019-04-23T07:06:31.505Z,56.80
2019-04-23T07:11:42.966Z,55.54
2019-04-23T07:16:39.940Z,55.05
2019-04-23T07:19:09.223Z,54.17
2019-04-23T07:21:54.117Z,54.64
2019-04-23T07:29:12.097Z,53.32
2019-04-23T07:31:40.904Z,51.81
2019-04-23T07:34:05.499Z,51.33
2019-04-23T07:36:44.640Z,51.69
2019-04-23T07:39:21.958Z,51.70
2019-04-23T07:42:28.032Z,50.58
2019-04-23T07:44:56.608Z,50.30
2019-04-23T07:47:45.228Z,50.40
2019-04-23T07:50:24.568Z,50.19
2019-04-23T07:52:51.550Z,50.17
2019-04-23T07:55:30.112Z,50.51
2019-04-23T07:57:54.985Z,49.84
2019-04-23T08:00:28.888Z,50.43
2019-04-23T08:03:04.215Z,50.81
2019-04-23T08:05:24.084Z,50.04
2019-04-23T08:07:55.848Z,50.43
2019-04-23T08:10:29.716Z,49.88
2019-04-23T08:13:04.253Z,50.71
2019-04-23T08:15:29.165Z,50.36
2019-04-23T08:17:59.005Z,50.84
2019-04-23T08:20:40.683Z,49.71
2019-04-23T08:23:03.771Z,49.75
2019-04-23T08:25:45.533Z,50.03
2019-04-23T08:28:25.908Z,49.47
2019-04-23T08:30:46.552Z,48.22
2019-04-23T08:33:19.180Z,49.02
2019-04-23T08:35:55.700Z,49.10
2019-04-23T08:38:26.618Z,48.29
2019-04-23T08:43:36.431Z,48.70
2019-04-23T08:46:15.554Z,48.70
2019-04-23T08:48:49.703Z,48.38
2019-04-23T08:51:31.925Z,48.80
2019-04-23T08:53:51.635Z,47.13
2019-04-23T08:56:27.489Z,46.11
2019-04-23T08:58:49.347Z,44.63
2019-04-23T09:01:16.955Z,44.80
2019-04-23T09:03:47.888Z,42.32
2019-04-23T09:06:24.462Z,42.09
2019-04-23T09:08:49.982Z,40.89
2019-04-23T09:11:41.822Z,41.33
2019-04-23T09:16:28.886Z,40.20
2019-04-23T09:19:02.621Z,39.05
2019-04-23T09:21:27.023Z,37.87
2019-04-23T09:23:56.169Z,36.50
2019-04-23T09:26:26.013Z,35.89
2019-04-23T09:29:02.566Z,35.63
2019-04-23T09:34:47.835Z,35.53
2019-04-23T09:40:18.868Z,37.55
2019-04-23T09:42:54.328Z,36.69
2019-04-23T09:48:02.401Z,37.20
2019-04-23T09:50:36.621Z,35.54
2019-04-23T09:55:39.749Z,36.49
2019-04-23T09:58:11.797Z,36.92
2019-04-23T10:00:47.004Z,35.54
2019-04-23T10:03:05.041Z,34.42
2019-04-23T10:05:30.904Z,34.61
2019-04-23T10:08:01.637Z,34.55
2019-04-23T10:10:22.730Z,33.54
2019-04-23T10:12:53.657Z,33.96
2019-04-23T10:15:28.820Z,34.89
2019-04-23T10:17:54.274Z,35.84
2019-04-23T10:20:24.807Z,34.27
2019-04-23T10:22:54.552Z,35.51
2019-04-23T10:25:24.028Z,35.91
2019-04-23T10:27:58.650Z,36.39
2019-04-23T10:30:24.472Z,38.09
2019-04-23T10:32:53.755Z,37.61
2019-04-23T10:35:35.315Z,38.25
2019-04-23T10:38:01.866Z,37.20
2019-04-23T10:40:30.260Z,34.67
2019-04-23T10:42:57.898Z,33.22
2019-04-23T10:46:10.554Z,33.17
2019-04-23T10:49:22.215Z,33.00
2019-04-23T10:51:51.622Z,31.83
2019-04-23T10:54:23.535Z,31.01
2019-04-23T10:59:30.120Z,30.47
2019-04-23T11:02:15.983Z,31.37
2019-04-23T11:07:20.867Z,33.47
2019-04-23T11:12:23.404Z,33.65
2019-04-23T11:14:52.760Z,32.91
2019-04-23T11:17:19.474Z,34.15
2019-04-23T11:19:58.231Z,33.65
2019-04-23T11:22:38.870Z,33.75
2019-04-23T11:27:24.276Z,33.37
2019-04-23T11:29:52.467Z,34.07
2019-04-23T11:32:42.894Z,33.55
2019-04-23T11:37:36.892Z,31.49
2019-04-23T11:40:01.720Z,34.29
2019-04-23T11:42:32.737Z,34.02
2019-04-23T11:44:56.663Z,34.50
2019-04-23T11:48:05.264Z,33.74
2019-04-23T11:52:36.447Z,36.06
2019-04-23T11:55:07.328Z,36.50
2019-04-23T11:57:40.777Z,37.11
2019-04-23T11:59:59.476Z,36.13
2019-04-23T12:02:49.799Z,37.18
2019-04-23T12:08:38.077Z,38.14
2019-04-23T12:14:09.592Z,38.47
2019-04-23T12:16:47.137Z,37.44
2019-04-23T12:19:33.394Z,37.48
2019-04-23T12:21:43.869Z,38.33
2019-04-23T12:24:17.157Z,37.98
2019-04-23T12:26:44.370Z,37.69
2019-04-23T12:29:20.330Z,36.30
2019-04-23T12:31:49.181Z,36.86
2019-04-23T12:34:15.043Z,36.25
2019-04-23T12:36:46.667Z,34.72
2019-04-23T12:39:27.045Z,34.68
2019-04-23T12:41:51.191Z,36.13
2019-04-23T12:44:27.002Z,35.06
2019-04-23T12:46:54.241Z,31.90
2019-04-23T12:49:44.600Z,33.87
2019-04-23T12:52:05.000Z,33.98
2019-04-23T12:54:51.721Z,33.21
2019-04-23T12:59:36.769Z,33.88
2019-04-23T13:02:33.345Z,34.86
2019-04-23T13:04:41.846Z,35.76
2019-04-23T13:07:17.511Z,36.67
2019-04-23T13:09:54.548Z,35.38
2019-04-23T13:12:29.284Z,35.00
2019-04-23T13:14:55.543Z,33.67
2019-04-23T13:17:29.727Z,33.53
2019-04-23T13:19:54.709Z,33.03
2019-04-23T13:22:23.957Z,33.98
2019-04-23T13:25:10.108Z,34.10
2019-04-23T13:33:01.129Z,32.65
2019-04-23T13:37:59.411Z,34.34
2019-04-23T13:40:36.489Z,34.35
2019-04-23T13:43:27.110Z,34.21
2019-04-23T13:48:06.082Z,34.23
2019-04-23T13:53:31.636Z,34.09
2019-04-23T13:55:27.917Z,32.53
2019-04-23T14:00:44.778Z,31.79
2019-04-23T14:03:03.212Z,32.17
2019-04-23T14:06:00.960Z,33.77
2019-04-23T14:08:41.614Z,32.96
2019-04-23T14:10:53.246Z,33.23
2019-04-23T14:13:50.857Z,33.66
2019-04-23T14:16:04.658Z,32.70
2019-04-23T14:18:51.673Z,34.47
2019-04-23T14:21:05.859Z,33.69
2019-04-23T14:23:54.129Z,34.63
2019-04-23T14:31:04.785Z,33.91
2019-04-23T14:33:51.215Z,33.91
2019-04-23T14:36:10.928Z,35.28
2019-04-23T14:41:21.799Z,34.98
2019-04-23T14:43:48.743Z,33.06
2019-04-23T14:51:24.167Z,36.72
2019-04-23T14:53:43.891Z,36.29
2019-04-23T14:56:22.550Z,37.21
2019-04-23T14:58:57.455Z,36.78
2019-04-23T15:01:27.367Z,36.36
2019-04-23T15:08:59.194Z,38.10
2019-04-23T15:11:29.412Z,38.56
2019-04-23T15:13:55.391Z,36.17
2019-04-23T15:21:55.492Z,37.81
2019-04-23T15:24:25.104Z,36.91
2019-04-23T15:29:06.060Z,35.70
2019-04-23T15:31:59.242Z,36.78
2019-04-23T15:34:17.674Z,36.57
2019-04-23T15:37:15.565Z,37.61
2019-04-23T15:39:32.205Z,36.17
2019-04-23T15:44:16.127Z,36.00
2019-04-23T15:49:31.618Z,37.77
2019-04-23T15:52:17.066Z,38.15
2019-04-23T15:54:35.720Z,39.40
2019-04-23T15:57:02.480Z,39.89
2019-04-23T15:59:34.663Z,40.45
2019-04-23T16:01:42.618Z,40.08
2019-04-23T16:04:06.096Z,40.32
2019-04-23T16:06:38.517Z,40.53
2019-04-23T16:09:28.078Z,41.80
2019-04-23T16:11:59.645Z,41.95
2019-04-23T16:14:50.354Z,42.88
2019-04-23T16:17:13.806Z,42.62
2019-04-23T16:22:36.636Z,41.35
2019-04-23T16:27:38.006Z,40.56
2019-04-23T16:33:11.287Z,40.97
2019-04-23T16:36:01.928Z,40.44
2019-04-23T16:38:32.513Z,41.75
2019-04-23T16:40:47.637Z,42.39
2019-04-23T16:43:40.397Z,40.82
2019-04-23T16:46:03.115Z,41.17
2019-04-23T16:48:46.470Z,41.23
2019-04-23T16:53:37.366Z,40.95
2019-04-23T16:56:18.539Z,41.63
2019-04-23T17:03:31.234Z,40.83
2019-04-23T17:06:15.671Z,41.63
2019-04-23T17:08:52.892Z,41.20
2019-04-23T17:11:08.942Z,42.30
2019-04-23T17:16:15.284Z,42.42
2019-04-23T17:18:41.108Z,43.89
2019-04-23T17:21:11.821Z,43.01
2019-04-23T17:26:23.949Z,44.18
2019-04-23T17:28:44.440Z,43.63
2019-04-23T17:33:54.603Z,43.69
2019-04-23T17:39:10.640Z,44.15
2019-04-23T17:42:05.440Z,45.03
2019-04-23T17:44:38.611Z,45.49
2019-04-23T17:47:08.700Z,45.85
2019-04-23T17:49:44.574Z,46.07
2019-04-23T17:52:17.038Z,46.46
2019-04-23T17:54:42.292Z,46.17
2019-04-23T18:00:04.875Z,46.50
2019-04-23T18:05:04.111Z,47.90
2019-04-23T18:07:39.182Z,49.10
2019-04-23T18:12:38.992Z,48.18
2019-04-23T18:15:03.390Z,48.62
2019-04-23T18:20:24.787Z,51.72
2019-04-23T18:23:04.791Z,50.79
2019-04-23T18:25:30.776Z,51.61
2019-04-23T18:31:06.207Z,53.24
2019-04-23T18:34:05.314Z,54.20
2019-04-23T18:36:14.837Z,53.45
2019-04-23T18:38:52.693Z,53.70
2019-04-23T18:41:10.717Z,54.21
2019-04-23T18:43:55.139Z,54.70
2019-04-23T18:48:53.328Z,55.97
2019-04-23T18:51:21.375Z,56.15
2019-04-23T18:54:08.175Z,55.27
2019-04-23T18:56:31.155Z,56.61
2019-04-23T18:59:11.015Z,56.45
2019-04-23T19:01:30.980Z,57.21
2019-04-23T19:07:05.251Z,56.64
2019-04-23T19:15:33.304Z,57.47
2019-04-23T19:17:56.625Z,56.73
2019-04-23T19:20:38.292Z,56.82
2019-04-23T19:25:22.872Z,57.46
2019-04-23T19:27:52.121Z,57.78
2019-04-23T19:30:43.119Z,57.18
2019-04-23T19:33:13.685Z,57.28
2019-04-23T19:38:13.585Z,57.91
2019-04-23T19:40:51.891Z,58.16
2019-04-23T19:43:19.420Z,58.28
2019-04-23T19:45:55.748Z,57.85
2019-04-23T19:53:32.208Z,57.97
2019-04-23T19:56:04.349Z,58.66
2019-04-23T19:58:32.453Z,59.26
2019-04-23T20:01:13.754Z,60.17
2019-04-23T20:06:02.948Z,60.80
2019-04-23T20:08:46.410Z,61.93
2019-04-23T20:11:04.515Z,62.02
2019-04-23T20:13:41.151Z,61.64
2019-04-23T20:16:10.575Z,60.95
2019-04-23T20:18:47.808Z,61.30
2019-04-23T20:20:58.981Z,60.54
2019-04-23T20:24:02.146Z,61.10
2019-04-23T20:36:53.201Z,61.67
2019-04-23T20:39:30.333Z,62.57
2019-04-23T20:44:39.429Z,63.14
2019-04-23T20:47:06.296Z,63.61
2019-04-23T20:49:40.751Z,64.03
2019-04-23T20:52:04.727Z,64.40
2019-04-23T20:54:43.188Z,64.84
2019-04-23T20:57:31.637Z,64.32
2019-04-23T21:05:09.839Z,64.62
2019-04-23T21:07:49.121Z,64.16
2019-04-23T21:17:56.203Z,67.34
2019-04-23T21:20:19.679Z,67.15
2019-04-23T21:22:41.172Z,67.12
2019-04-23T21:25:11.856Z,67.44
2019-04-23T21:27:55.427Z,68.11
2019-04-23T21:30:43.603Z,68.91
2019-04-23T21:33:07.371Z,69.14
2019-04-23T21:36:13.723Z,70.17
2019-04-23T21:46:47.662Z,70.36
2019-04-23T21:51:51.611Z,70.24
2019-04-23T21:54:08.009Z,70.03
2019-04-23T21:56:48.347Z,69.83
2019-04-23T22:02:03.626Z,69.72
2019-04-23T22:04:25.676Z,69.84
2019-04-23T22:09:26.941Z,69.52
2019-04-23T22:12:03.550Z,69.78
2019-04-23T22:14:27.482Z,69.59
2019-04-23T22:17:03.308Z,70.08
2019-04-23T22:19:52.742Z,69.71
2019-04-23T22:21:57.508Z,69.99
2019-04-23T22:24:27.278Z,69.87
2019-04-23T22:26:57.628Z,70.01
2019-04-23T22:29:36.892Z,70.00
2019-04-23T22:31:53.786Z,70.27
2019-04-23T22:37:11.184Z,70.70
2019-04-23T22:39:39.947Z,70.75
2019-04-23T22:42:22.024Z,71.31
2019-04-23T22:44:56.155Z,71.46
2019-04-23T22:47:30.003Z,71.71
2019-04-23T22:49:55.347Z,71.73
2019-04-23T22:52:23.026Z,72.03
2019-04-23T22:54:57.370Z,72.08
2019-04-23T22:57:11.604Z,71.71
2019-04-23T23:00:02.407Z,72.37
2019-04-23T23:02:44.366Z,72.89
2019-04-23T23:07:48.939Z,73.69
2019-04-23T23:15:37.207Z,74.59
2019-04-23T23:17:50.595Z,75.00
2019-04-23T23:20:20.880Z,75.54
2019-04-23T23:22:59.122Z,75.24
2019-04-23T23:25:19.112Z,75.34
2019-04-23T23:27:52.094Z,75.19
2019-04-23T23:32:49.112Z,74.90
2019-04-23T23:35:24.312Z,75.87
2019-04-23T23:37:55.942Z,75.39
2019-04-23T23:40:21.868Z,75.28
2019-04-23T23:43:08.827Z,75.21
2019-04-23T23:47:58.642Z,75.45
2019-04-23T23:50:25.482Z,74.99
2019-04-23T23:53:11.955Z,75.20
2019-04-23T23:58:06.436Z,75.07
